Time;durP1;ratioP1;P1;durP2;ratioP2;P2;SDS_P1;SDS_P2;PMS_P1;PMS_P2;Temp;Humidity;BMP_temperature;BMP_pressure;BME280_temperature;BME280_humidity;BME280_pressure;Samples;Min_cycle;Max_cycle;Signal;HPM_P1;HPM_P2
2023/12/27 00:01:56;;;;;;;19.23;10.38;;;;;;;2.77;100.00;102025.63;5029359;28;20045;-70
2023/12/27 00:04:23;;;;;;;21.70;10.32;;;;;;;2.73;100.00;102026.38;4996816;28;20129;-70
2023/12/27 00:06:53;;;;;;;19.88;10.50;;;;;;;2.67;100.00;102020.16;5030317;28;20053;-70
2023/12/27 00:09:21;;;;;;;24.67;10.88;;;;;;;2.60;100.00;102019.16;5030861;28;20048;-70
2023/12/27 00:11:48;;;;;;;21.33;10.27;;;;;;;2.55;100.00;102021.66;5022824;28;20084;-70
2023/12/27 00:14:15;;;;;;;21.45;9.85;;;;;;;2.50;100.00;102010.28;5045805;28;20048;-70
2023/12/27 00:16:42;;;;;;;17.30;9.65;;;;;;;2.46;100.00;102011.03;5049967;28;20072;-70
2023/12/27 00:19:09;;;;;;;16.63;4.78;;;;;;;2.41;100.00;102004.88;5039836;28;20037;-70
2023/12/27 00:21:36;;;;;;;17.95;9.98;;;;;;;2.38;100.00;102005.69;5052469;28;20067;-71
2023/12/27 00:24:04;;;;;;;17.92;9.07;;;;;;;2.32;100.00;102003.84;5064423;28;20536;-71
2023/12/27 00:26:31;;;;;;;19.83;9.93;;;;;;;2.28;100.00;102004.59;5060217;28;20037;-72
2023/12/27 00:28:59;;;;;;;14.13;5.22;;;;;;;2.25;100.00;102003.66;5033755;28;20037;-70
2023/12/27 00:31:27;;;;;;;21.50;10.70;;;;;;;2.21;100.00;101997.50;5034978;28;20037;-70
2023/12/27 00:33:55;;;;;;;22.35;11.23;;;;;;;2.17;100.00;101995.66;5050109;28;20041;-70
2023/12/27 00:36:29;;;;;;;21.42;11.32;;;;;;;2.14;100.00;102001.69;5032319;28;20668;-69
2023/12/27 00:38:57;;;;;;;23.33;11.43;;;;;;;2.10;100.00;102002.44;5050671;28;20123;-69
2023/12/27 00:41:24;;;;;;;21.55;11.40;;;;;;;2.06;100.00;101995.44;5049386;28;20065;-70
2023/12/27 00:43:51;;;;;;;14.68;6.05;;;;;;;2.00;100.00;102003.06;5032086;28;20170;-69
2023/12/27 00:46:18;;;;;;;21.85;11.77;;;;;;;1.96;100.00;102011.66;5051298;28;20075;-70
2023/12/27 00:48:45;;;;;;;20.58;10.93;;;;;;;1.90;100.00;102004.59;5048819;28;20681;-70
2023/12/27 00:51:21;;;;;;;12.95;5.82;;;;;;;1.83;100.00;102002.69;5040115;28;20046;-69
2023/12/27 00:53:49;;;;;;;22.92;11.70;;;;;;;1.77;100.00;101987.81;5047508;28;20029;-70
2023/12/27 00:56:16;;;;;;;17.60;10.63;;;;;;;1.78;100.00;102001.69;5032209;28;20045;-69
2023/12/27 00:58:43;;;;;;;20.95;11.40;;;;;;;1.77;100.00;101999.91;5048682;28;20704;-72
2023/12/27 01:01:11;;;;;;;23.33;11.82;;;;;;;1.74;100.00;102005.03;5048553;28;20055;-72
2023/12/27 01:03:41;;;;;;;25.00;11.23;;;;;;;1.71;100.00;102000.63;5032090;28;20588;-70
2023/12/27 01:06:10;;;;;;;15.30;6.57;;;;;;;1.67;100.00;102004.03;5055550;28;20452;-72
2023/12/27 01:08:38;;;;;;;18.23;11.32;;;;;;;1.65;100.00;102003.09;5043374;28;20072;-73
2023/12/27 01:11:06;;;;;;;18.83;11.95;;;;;;;1.62;100.00;102003.91;5050564;28;20524;-71
2023/12/27 01:13:33;;;;;;;19.33;11.75;;;;;;;1.61;100.00;102009.94;5049007;28;20033;-71
2023/12/27 01:16:01;;;;;;;21.75;11.48;;;;;;;1.60;100.00;102000.38;5049720;28;20072;-71
2023/12/27 01:18:28;;;;;;;24.33;12.20;;;;;;;1.61;100.00;102004.75;5049488;28;20432;-71
2023/12/27 01:20:56;;;;;;;12.77;6.38;;;;;;;1.60;100.00;102005.59;5045786;28;20493;-71
2023/12/27 01:23:23;;;;;;;27.40;12.55;;;;;;;1.61;100.00;102004.75;5060308;28;20041;-70
2023/12/27 01:25:50;;;;;;;24.30;11.95;;;;;;;1.63;100.00;102005.63;5049594;28;20081;-71
2023/12/27 01:28:17;;;;;;;23.10;12.27;;;;;;;1.67;100.00;102002.28;5048963;28;20048;-70
2023/12/27 01:30:44;;;;;;;15.05;6.57;;;;;;;1.68;100.00;102004.06;5049620;28;20329;-70
2023/12/27 01:33:11;;;;;;;25.83;12.05;;;;;;;1.70;100.00;101993.69;5050384;28;20041;-70
2023/12/27 01:35:40;;;;;;;25.88;12.95;;;;;;;1.74;100.00;101986.81;5017319;28;20071;-70
2023/12/27 01:38:07;;;;;;;16.65;6.75;;;;;;;1.74;100.00;101994.63;5049613;28;20059;-70
2023/12/27 01:40:34;;;;;;;23.35;12.70;;;;;;;1.74;100.00;101995.53;5048106;28;20045;-70
2023/12/27 01:43:01;;;;;;;22.48;11.95;;;;;;;1.74;100.00;101998.13;5037451;28;20469;-70
2023/12/27 01:45:28;;;;;;;12.52;6.38;;;;;;;1.72;100.00;102001.53;5028084;28;20084;-70
2023/12/27 01:47:56;;;;;;;24.20;11.52;;;;;;;1.69;100.00;102002.31;5029259;28;20045;-70
2023/12/27 01:50:24;;;;;;;11.20;5.45;;;;;;;1.66;100.00;102000.53;5031085;28;20067;-70
2023/12/27 01:52:51;;;;;;;22.75;10.90;;;;;;;1.63;100.00;102000.44;5027693;28;20045;-70
2023/12/27 01:55:19;;;;;;;22.92;10.98;;;;;;;1.61;100.00;101998.66;5029084;28;20044;-70
2023/12/27 01:57:46;;;;;;;20.45;10.60;;;;;;;1.60;100.00;101997.78;5018061;28;20053;-70
2023/12/27 02:00:15;;;;;;;23.02;10.90;;;;;;;1.58;100.00;101993.41;5030336;28;20129;-70
2023/12/27 02:02:42;;;;;;;19.90;6.60;;;;;;;1.57;100.00;101992.50;5048663;28;20065;-71
2023/12/27 02:05:09;;;;;;;21.45;10.88;;;;;;;1.55;100.00;101992.47;5023271;28;20107;-71
2023/12/27 02:07:38;;;;;;;12.95;6.30;;;;;;;1.54;100.00;101985.50;5026613;28;20072;-70
2023/12/27 02:10:06;;;;;;;13.75;5.45;;;;;;;1.54;100.00;101979.41;5030931;28;20064;-70
2023/12/27 02:12:33;;;;;;;31.20;11.80;;;;;;;1.54;100.00;101979.41;5048739;28;20511;-70
2023/12/27 02:15:01;;;;;;;22.45;10.88;;;;;;;1.55;100.00;101979.47;5048724;28;20079;-71
2023/12/27 02:17:29;;;;;;;21.38;10.68;;;;;;;1.54;100.00;101987.22;5030354;28;20041;-71
2023/12/27 02:19:58;;;;;;;23.73;10.60;;;;;;;1.55;100.00;101978.56;5031538;28;20041;-69
2023/12/27 02:22:30;;;;;;;24.75;10.77;;;;;;;1.56;100.00;101980.34;5047406;28;20055;-69
2023/12/27 02:24:57;;;;;;;12.93;5.30;;;;;;;1.54;100.00;101985.50;5064151;28;20049;-69
2023/12/27 02:27:24;;;;;;;20.60;10.48;;;;;;;1.54;100.00;101976.81;5047931;28;20063;-69
2023/12/27 02:29:51;;;;;;;14.15;5.40;;;;;;;1.55;100.00;101978.56;5031172;28;20045;-69
2023/12/27 02:32:18;;;;;;;23.40;10.43;;;;;;;1.55;100.00;101979.47;5028440;28;20527;-70
2023/12/27 02:34:46;;;;;;;25.55;10.13;;;;;;;1.57;100.00;101978.63;5028754;28;20132;-70
2023/12/27 02:37:13;;;;;;;23.98;9.95;;;;;;;1.57;100.00;101970.84;5044276;28;20388;-70
2023/12/27 02:39:40;;;;;;;12.07;4.55;;;;;;;1.56;100.00;101967.34;5029068;28;20053;-69
2023/12/27 02:42:07;;;;;;;9.85;4.57;;;;;;;1.55;100.00;101970.78;5046674;28;20123;-70
2023/12/27 02:44:34;;;;;;;15.82;4.18;;;;;;;1.58;100.00;101968.25;5047747;28;20045;-70
2023/12/27 02:47:02;;;;;;;17.42;4.90;;;;;;;1.64;100.00;101957.13;5045627;28;20049;-70
2023/12/27 02:49:29;;;;;;;28.42;10.27;;;;;;;1.69;100.00;101951.22;5040201;28;20059;-70
2023/12/27 02:51:56;;;;;;;25.92;10.60;;;;;;;1.75;100.00;101947.00;5029283;28;20120;-70
2023/12/27 02:54:24;;;;;;;22.52;10.07;;;;;;;1.79;100.00;101951.44;5046671;28;20036;-71
2023/12/27 02:56:51;;;;;;;15.02;5.45;;;;;;;1.82;100.00;101951.50;5037527;28;20131;-70
2023/12/27 02:59:18;;;;;;;23.45;10.43;;;;;;;1.85;100.00;101949.84;5048120;28;20091;-70
2023/12/27 03:01:45;;;;;;;16.52;4.97;;;;;;;1.90;100.00;101942.16;5047339;28;20047;-70
2023/12/27 03:04:12;;;;;;;20.60;5.35;;;;;;;1.96;100.00;101942.28;5030188;28;20041;-70
2023/12/27 03:06:39;;;;;;;21.30;10.43;;;;;;;2.00;100.00;101930.22;5040995;28;20576;-69
2023/12/27 03:09:06;;;;;;;28.25;11.05;;;;;;;2.05;100.00;101927.72;5045585;28;20053;-70
2023/12/27 03:11:33;;;;;;;18.42;6.25;;;;;;;2.10;100.00;101916.59;5029978;28;20519;-71
2023/12/27 03:14:01;;;;;;;15.70;5.10;;;;;;;2.15;100.00;101917.59;5029853;28;20095;-69
2023/12/27 03:16:28;;;;;;;21.15;10.32;;;;;;;2.21;100.00;101915.94;5047671;28;20099;-70
2023/12/27 03:18:56;;;;;;;27.17;10.63;;;;;;;2.27;100.00;101926.50;5038926;28;20194;-70
2023/12/27 03:21:23;;;;;;;16.35;5.82;;;;;;;2.29;100.00;101920.47;5038013;28;20041;-70
2023/12/27 03:23:51;;;;;;;25.42;10.77;;;;;;;2.32;100.00;101914.44;5045848;28;20049;-70
2023/12/27 03:26:18;;;;;;;26.70;11.23;;;;;;;2.37;100.00;101924.94;5036835;28;20120;-70
2023/12/27 03:28:45;;;;;;;23.88;11.57;;;;;;;2.39;100.00;101911.13;5047174;28;20072;-70
2023/12/27 03:31:13;;;;;;;25.02;11.10;;;;;;;2.42;100.00;101911.19;5047458;28;20143;-70
2023/12/27 03:33:40;;;;;;;18.45;5.38;;;;;;;2.43;100.00;101892.13;5047536;28;20036;-70
2023/12/27 03:36:08;;;;;;;29.55;11.90;;;;;;;2.47;100.00;101886.16;5036797;28;20053;-70
2023/12/27 03:38:35;;;;;;;19.98;5.70;;;;;;;2.49;100.00;101883.56;5045722;28;20321;-70
2023/12/27 03:41:03;;;;;;;31.85;12.05;;;;;;;2.52;100.00;101883.63;5039029;28;20114;-70
2023/12/27 03:43:30;;;;;;;36.63;12.57;;;;;;;2.55;100.00;101888.03;5045144;28;20501;-70
2023/12/27 03:46:00;;;;;;;28.00;10.80;;;;;;;2.59;100.00;101895.91;5039350;28;20063;-70
2023/12/27 03:48:27;;;;;;;30.75;11.73;;;;;;;2.64;100.00;101898.59;5044609;28;20073;-70
2023/12/27 03:50:54;;;;;;;28.13;11.55;;;;;;;2.66;100.00;101893.41;5029162;28;20041;-70
2023/12/27 03:53:21;;;;;;;30.90;11.68;;;;;;;2.68;100.00;101892.63;5035566;28;20064;-70
2023/12/27 03:55:48;;;;;;;24.15;11.23;;;;;;;2.72;100.00;101888.34;5036013;28;20128;-69
2023/12/27 03:58:15;;;;;;;27.23;12.18;;;;;;;2.74;100.00;101877.09;5047359;28;20605;-70
2023/12/27 04:00:42;;;;;;;27.30;11.93;;;;;;;2.78;100.00;101878.03;5036896;28;20045;-70
2023/12/27 04:03:10;;;;;;;29.05;11.73;;;;;;;2.83;100.00;101872.91;5045387;28;20037;-70
2023/12/27 04:05:37;;;;;;;28.65;12.07;;;;;;;2.87;100.00;101866.91;5052860;28;20080;-70
2023/12/27 04:08:05;;;;;;;26.50;11.00;;;;;;;2.91;100.00;101868.72;5046908;28;20456;-70
2023/12/27 04:10:32;;;;;;;32.45;12.60;;;;;;;2.96;100.00;101861.88;5028650;28;20683;-70
2023/12/27 04:12:59;;;;;;;25.40;11.43;;;;;;;3.00;100.00;101854.97;5029547;28;20146;-70
2023/12/27 04:15:26;;;;;;;30.13;12.00;;;;;;;3.04;100.00;101852.47;5046808;28;20102;-70
2023/12/27 04:17:53;;;;;;;28.90;11.48;;;;;;;3.07;100.00;101846.41;5045532;28;20044;-69
2023/12/27 04:20:21;;;;;;;24.42;10.70;;;;;;;3.10;100.00;101851.69;5029818;28;20160;-69
2023/12/27 04:22:48;;;;;;;35.28;11.75;;;;;;;3.12;100.00;101839.56;5046502;28;20045;-69
2023/12/27 04:25:15;;;;;;;26.25;10.93;;;;;;;3.16;100.00;101832.66;5028436;28;20043;-69
2023/12/27 04:27:42;;;;;;;28.35;11.15;;;;;;;3.18;100.00;101825.75;5047257;28;20088;-70
2023/12/27 04:30:10;;;;;;;24.30;10.82;;;;;;;3.22;100.00;101809.31;5046469;28;20098;-70
2023/12/27 04:32:37;;;;;;;25.48;11.55;;;;;;;3.25;100.00;101798.94;5050752;28;20055;-70
2023/12/27 04:35:05;;;;;;;27.65;11.05;;;;;;;3.30;100.00;101801.59;5050750;28;20501;-70
2023/12/27 04:37:33;;;;;;;26.25;10.52;;;;;;;3.32;100.00;101805.13;5045747;28;20140;-70
2023/12/27 04:40:00;;;;;;;24.42;11.57;;;;;;;3.36;100.00;101805.19;5048167;28;20099;-70
2023/12/27 04:42:27;;;;;;;29.98;11.85;;;;;;;3.39;100.00;101799.13;5049208;28;20053;-70
2023/12/27 04:44:55;;;;;;;28.35;12.05;;;;;;;3.40;100.00;101799.19;5048543;28;20110;-70
2023/12/27 04:47:23;;;;;;;25.05;11.80;;;;;;;3.41;100.00;101802.66;5033487;28;20037;-71
2023/12/27 04:49:50;;;;;;;30.27;12.45;;;;;;;3.40;100.00;101806.09;5016652;28;20131;-70
2023/12/27 04:52:18;;;;;;;30.00;12.45;;;;;;;3.39;100.00;101800.03;5032259;28;20045;-70
2023/12/27 04:54:45;;;;;;;28.42;11.45;;;;;;;3.41;100.00;101800.91;5031293;28;20051;-69
2023/12/27 04:57:13;;;;;;;25.58;11.55;;;;;;;3.40;100.00;101800.91;5032655;28;20041;-69
2023/12/27 04:59:40;;;;;;;29.60;11.88;;;;;;;3.45;100.00;101798.34;5033140;28;20048;-69
2023/12/27 05:02:08;;;;;;;31.50;12.10;;;;;;;3.42;100.00;101788.75;5043486;28;20049;-69
2023/12/27 05:04:35;;;;;;;26.75;11.07;;;;;;;3.44;100.00;101783.56;5016136;28;20049;-69
2023/12/27 05:07:02;;;;;;;29.63;11.48;;;;;;;3.44;100.00;101780.94;5063656;28;20044;-69
2023/12/27 05:09:29;;;;;;;28.73;11.98;;;;;;;3.45;100.00;101786.22;5055900;28;20044;-70
2023/12/27 05:11:57;;;;;;;31.23;12.23;;;;;;;3.48;100.00;101783.63;5038814;28;20068;-70
2023/12/27 05:14:24;;;;;;;29.20;11.23;;;;;;;3.53;100.00;101789.78;5049044;28;20040;-70
2023/12/27 05:16:54;;;;;;;28.35;11.85;;;;;;;3.55;100.00;101774.16;5050898;28;20072;-70
2023/12/27 05:19:22;;;;;;;33.08;12.32;;;;;;;3.59;100.00;101775.97;5048673;28;20055;-70
2023/12/27 05:21:49;;;;;;;25.75;11.55;;;;;;;3.61;100.00;101771.66;5047322;28;20055;-70
2023/12/27 05:24:16;;;;;;;28.75;11.07;;;;;;;3.66;100.00;101782.16;5047485;28;20764;-70
2023/12/27 05:26:43;;;;;;;26.33;11.18;;;;;;;3.71;100.00;101772.63;5048988;28;20055;-71
2023/12/27 05:29:10;;;;;;;25.83;11.23;;;;;;;3.77;100.00;101764.88;5032064;28;20037;-70
2023/12/27 05:31:37;;;;;;;24.85;10.35;;;;;;;3.79;100.00;101765.78;5059133;28;20098;-70
2023/12/27 05:34:04;;;;;;;28.13;10.80;;;;;;;3.84;100.00;101765.84;5049384;28;20057;-70
2023/12/27 05:36:32;;;;;;;25.80;10.50;;;;;;;3.89;100.00;101756.34;5048740;28;20067;-70
2023/12/27 05:38:59;;;;;;;22.45;9.50;;;;;;;3.91;100.00;101762.47;5048038;28;20037;-71
2023/12/27 05:41:26;;;;;;;24.60;10.23;;;;;;;3.92;100.00;101761.59;5047195;28;20054;-70
2023/12/27 05:43:53;;;;;;;23.20;10.57;;;;;;;3.95;100.00;101756.41;5045868;28;20045;-70
2023/12/27 05:46:21;;;;;;;26.92;10.30;;;;;;;3.99;100.00;101768.66;5045752;28;20123;-70
2023/12/27 05:48:49;;;;;;;23.27;10.18;;;;;;;4.02;100.00;101767.81;5049727;28;20053;-69
2023/12/27 05:51:16;;;;;;;21.13;9.32;;;;;;;4.06;100.00;101764.38;5047886;28;20044;-70
2023/12/27 05:53:43;;;;;;;22.58;10.23;;;;;;;4.10;100.00;101760.06;5049967;28;20037;-70
2023/12/27 05:56:10;;;;;;;21.30;9.00;;;;;;;4.16;100.00;101754.91;5043852;28;20052;-70
2023/12/27 05:58:37;;;;;;;22.38;9.68;;;;;;;4.16;100.00;101753.19;5048676;28;20041;-70
2023/12/27 06:01:05;;;;;;;21.00;9.63;;;;;;;4.19;100.00;101749.72;5033579;28;20063;-70
2023/12/27 06:03:32;;;;;;;26.23;10.30;;;;;;;4.21;100.00;101740.19;5048626;28;20049;-70
2023/12/27 06:05:59;;;;;;;30.27;9.60;;;;;;;4.22;100.00;101741.06;5029817;28;20045;-70
2023/12/27 06:08:26;;;;;;;23.42;9.30;;;;;;;4.25;100.00;101736.72;5041666;28;20053;-74
2023/12/27 06:10:54;;;;;;;22.90;10.27;;;;;;;4.26;100.00;101737.63;5047465;28;20132;-70
2023/12/27 06:13:21;;;;;;;23.38;9.57;;;;;;;4.27;100.00;101731.53;5039557;28;20128;-70
2023/12/27 06:15:48;;;;;;;22.38;8.90;;;;;;;4.30;100.00;101732.44;5031501;28;20114;-71
2023/12/27 06:18:15;;;;;;;26.38;9.52;;;;;;;4.30;100.00;101729.84;5047197;28;20041;-71
2023/12/27 06:20:42;;;;;;;23.08;9.20;;;;;;;4.32;100.00;101724.63;5047790;28;20041;-71
2023/12/27 06:23:09;;;;;;;22.30;9.50;;;;;;;4.32;100.00;101724.63;5053458;28;20079;-71
2023/12/27 06:25:36;;;;;;;21.85;9.50;;;;;;;4.32;100.00;101714.19;5083873;28;20474;-71
2023/12/27 06:28:04;;;;;;;25.77;10.05;;;;;;;4.34;100.00;101708.09;5057649;28;20060;-71
2023/12/27 06:30:31;;;;;;;27.45;9.80;;;;;;;4.35;100.00;101706.38;5048876;28;20075;-71
2023/12/27 06:32:58;;;;;;;21.02;9.63;;;;;;;4.37;100.00;101702.06;5048279;28;20075;-71
2023/12/27 06:35:25;;;;;;;25.85;9.70;;;;;;;4.37;100.00;101693.34;5028381;28;20056;-71
2023/12/27 06:37:52;;;;;;;30.55;9.77;;;;;;;4.35;100.00;101695.94;5046878;28;20602;-71
2023/12/27 06:40:19;;;;;;;23.77;9.40;;;;;;;4.38;100.00;101688.13;5047310;28;20080;-71
2023/12/27 06:42:46;;;;;;;26.35;9.73;;;;;;;4.39;100.00;101695.09;5045663;28;20036;-71
2023/12/27 06:45:14;;;;;;;28.33;9.18;;;;;;;4.40;100.00;101686.41;5030418;28;20068;-71
2023/12/27 06:47:41;;;;;;;21.85;9.27;;;;;;;4.40;100.00;101678.56;5063402;28;20099;-73
2023/12/27 06:50:08;;;;;;;22.60;9.27;;;;;;;4.42;100.00;101665.53;5049141;28;20123;-71
2023/12/27 06:52:35;;;;;;;24.30;8.95;;;;;;;4.43;100.00;101665.53;5046884;28;20052;-71
2023/12/27 06:55:03;;;;;;;18.00;7.88;;;;;;;4.45;100.00;101662.94;5049293;28;20535;-72
2023/12/27 06:57:30;;;;;;;24.02;8.65;;;;;;;4.47;100.00;101661.22;5042745;28;20037;-74
2023/12/27 06:59:57;;;;;;;29.75;9.00;;;;;;;4.57;100.00;101644.75;5026712;28;20045;-71
2023/12/27 07:02:24;;;;;;;23.40;9.18;;;;;;;4.69;100.00;101646.56;5050995;28;20875;-70
2023/12/27 07:04:51;;;;;;;25.48;8.13;;;;;;;4.77;100.00;101644.03;5050638;28;20040;-70
2023/12/27 07:07:18;;;;;;;23.20;7.43;;;;;;;4.83;100.00;101638.84;5030297;28;20400;-70
2023/12/27 07:09:45;;;;;;;24.08;8.32;;;;;;;4.89;100.00;101635.38;5030141;28;20045;-70
2023/12/27 07:12:13;;;;;;;18.77;7.32;;;;;;;4.95;100.00;101635.44;5032309;28;20509;-70
2023/12/27 07:14:40;;;;;;;18.02;7.80;;;;;;;4.97;100.00;101634.56;5046845;28;20037;-71
2023/12/27 07:17:07;;;;;;;18.88;7.57;;;;;;;5.00;100.00;101638.06;5030120;28;20073;-70
2023/12/27 07:19:34;;;;;;;16.13;7.22;;;;;;;5.11;100.00;101637.25;5047280;28;20065;-70
2023/12/27 07:22:02;;;;;;;21.98;7.80;;;;;;;5.23;100.00;101630.34;5045837;28;20063;-70
2023/12/27 07:24:29;;;;;;;17.15;6.85;;;;;;;5.27;100.00;101630.34;5049132;28;20065;-70
2023/12/27 07:26:57;;;;;;;15.18;6.65;;;;;;;5.35;100.00;101626.91;5037216;28;20048;-70
2023/12/27 07:29:24;;;;;;;16.42;7.78;;;;;;;5.40;100.00;101627.81;5018108;28;20103;-71
2023/12/27 07:31:52;;;;;;;22.40;7.72;;;;;;;5.38;100.00;101630.41;5048669;28;20123;-70
2023/12/27 07:34:19;;;;;;;19.02;7.53;;;;;;;5.32;100.00;101625.16;5045280;28;20045;-70
2023/12/27 07:36:48;;;;;;;18.67;7.25;;;;;;;5.26;100.00;101612.91;5026672;28;20094;-70
2023/12/27 07:39:15;;;;;;;17.30;7.88;;;;;;;5.30;100.00;101608.56;5039899;28;20068;-70
2023/12/27 07:41:43;;;;;;;19.35;8.18;;;;;;;5.39;100.00;101613.84;5041417;28;20131;-71
2023/12/27 07:44:10;;;;;;;25.92;8.18;;;;;;;5.38;100.00;101619.06;5046521;28;20045;-70
2023/12/27 07:46:37;;;;;;;21.67;8.43;;;;;;;5.32;100.00;101613.81;5039067;28;20107;-70
2023/12/27 07:49:04;;;;;;;17.08;7.28;;;;;;;5.28;100.00;101605.97;5042598;28;20557;-70
2023/12/27 07:51:31;;;;;;;18.95;7.72;;;;;;;5.34;100.00;101609.47;5047206;28;20281;-72
2023/12/27 07:53:59;;;;;;;17.25;8.35;;;;;;;5.33;100.00;101608.59;5039127;28;20045;-70
2023/12/27 07:56:28;;;;;;;17.05;7.93;;;;;;;5.27;100.00;101605.97;5019773;28;20048;-70
2023/12/27 07:58:55;;;;;;;19.42;8.98;;;;;;;5.19;100.00;101605.06;5044449;28;20068;-71
2023/12/27 08:01:23;;;;;;;15.65;8.52;;;;;;;5.15;100.00;101605.91;5046265;28;20095;-71
2023/12/27 08:03:54;;;;;;;17.83;8.68;;;;;;;5.12;100.00;101614.63;5043652;28;20052;-71
2023/12/27 08:06:22;;;;;;;18.23;9.27;;;;;;;5.11;100.00;101616.34;5047763;28;20041;-71
2023/12/27 08:08:50;;;;;;;18.48;9.23;;;;;;;5.13;100.00;101622.47;5036338;28;20519;-71
2023/12/27 08:11:17;;;;;;;16.90;9.25;;;;;;;5.16;100.00;101618.13;5049594;28;20047;-71
2023/12/27 08:13:44;;;;;;;22.38;10.98;;;;;;;5.19;100.00;101612.91;5029211;28;20041;-71
2023/12/27 08:16:11;;;;;;;21.55;10.70;;;;;;;5.18;100.00;101617.25;5051781;28;20077;-71
2023/12/27 08:18:38;;;;;;;36.90;22.85;;;;;;;5.20;100.00;101609.41;5048565;28;20073;-71
2023/12/27 08:21:05;;;;;;;42.70;35.05;;;;;;;5.21;100.00;101600.69;5042484;28;20744;-71
2023/12/27 08:23:33;;;;;;;25.42;17.30;;;;;;;5.27;100.00;101609.44;5052390;28;20501;-70
2023/12/27 08:26:00;;;;;;;28.40;16.88;;;;;;;5.27;100.00;101604.22;5028389;28;20045;-71
2023/12/27 08:28:27;;;;;;;19.40;12.68;;;;;;;5.32;100.00;101613.81;5045798;28;20059;-70
2023/12/27 08:30:54;;;;;;;26.65;19.52;;;;;;;5.34;100.00;101617.34;5031542;28;20044;-70
2023/12/27 08:33:22;;;;;;;33.70;20.70;;;;;;;5.37;100.00;101607.75;5049969;28;20102;-71
2023/12/27 08:35:50;;;;;;;26.80;15.02;;;;;;;5.41;100.00;101599.03;5041182;28;20488;-71
2023/12/27 08:38:21;;;;;;;62.08;41.67;;;;;;;5.46;100.00;101601.66;5043784;28;20041;-71
2023/12/27 08:40:48;;;;;;;63.17;51.58;;;;;;;5.49;100.00;101598.19;5045156;28;20040;-70
2023/12/27 08:43:18;;;;;;;117.53;85.88;;;;;;;5.54;100.00;101597.34;5033954;28;20052;-71
2023/12/27 08:45:48;;;;;;;133.98;94.30;;;;;;;5.61;100.00;101595.59;5036747;28;20032;-71
2023/12/27 08:48:16;;;;;;;181.90;155.70;;;;;;;5.68;100.00;101583.41;5037941;28;20033;-71
2023/12/27 08:50:44;;;;;;;68.80;49.13;;;;;;;5.72;100.00;101577.31;5009405;28;20049;-71
2023/12/27 08:53:11;;;;;;;32.53;29.25;;;;;;;5.78;100.00;101566.00;4995408;28;20120;-71
2023/12/27 08:55:38;;;;;;;21.52;15.85;;;;;;;5.82;100.00;101559.88;5024146;28;20047;-71
2023/12/27 08:58:05;;;;;;;28.77;24.83;;;;;;;5.85;100.00;101559.88;5061908;28;20247;-71
2023/12/27 09:00:33;;;;;;;20.55;15.30;;;;;;;5.90;100.00;101551.16;5049458;28;20107;-71
2023/12/27 09:03:00;;;;;;;21.15;14.38;;;;;;;5.95;100.00;101545.94;5035910;28;20078;-71
2023/12/27 09:05:27;;;;;;;20.58;14.88;;;;;;;6.00;100.00;101528.50;5070512;28;20036;-71
2023/12/27 09:07:54;;;;;;;18.52;12.82;;;;;;;6.06;100.00;101525.91;5063811;28;20091;-71
2023/12/27 09:10:21;;;;;;;19.88;16.27;;;;;;;6.12;100.00;101518.91;5033018;28;20051;-70
2023/12/27 09:12:49;;;;;;;19.95;15.00;;;;;;;6.16;100.00;101511.03;5022125;28;20584;-70
2023/12/27 09:15:16;;;;;;;23.30;16.25;;;;;;;6.22;100.00;101510.16;5044114;28;20119;-70
2023/12/27 09:17:43;;;;;;;19.08;11.35;;;;;;;6.25;100.00;101510.16;5041243;28;20037;-71
2023/12/27 09:20:11;;;;;;;22.08;15.65;;;;;;;6.27;100.00;101503.19;5042050;28;20051;-71
2023/12/27 09:22:38;;;;;;;17.80;13.68;;;;;;;6.29;100.00;101522.41;5068153;28;20502;-71
2023/12/27 09:25:05;;;;;;;18.83;12.07;;;;;;;6.33;100.00;101518.00;5026570;28;20052;-70
2023/12/27 09:27:33;;;;;;;21.40;12.43;;;;;;;6.40;100.00;101508.41;5047952;28;20517;-71
2023/12/27 09:30:00;;;;;;;16.38;13.20;;;;;;;6.42;100.00;101504.91;5048138;28;20049;-71
2023/12/27 09:32:27;;;;;;;19.50;14.00;;;;;;;6.47;100.00;101502.28;5043960;28;20049;-71
2023/12/27 09:34:54;;;;;;;36.85;33.15;;;;;;;6.50;100.00;101503.13;5040969;28;20119;-70
2023/12/27 09:37:25;;;;;;;22.00;18.50;;;;;;;6.54;100.00;101509.22;5028958;28;20052;-70
2023/12/27 09:39:52;;;;;;;17.60;12.30;;;;;;;6.57;100.00;101517.09;5061695;28;20040;-71
2023/12/27 09:42:19;;;;;;;18.63;12.95;;;;;;;6.60;100.00;101510.97;5014594;28;20491;-70
2023/12/27 09:44:49;;;;;;;15.82;11.35;;;;;;;6.62;100.00;101506.59;5020745;28;20069;-70
2023/12/27 09:47:18;;;;;;;452.02;319.25;;;;;;;6.62;100.00;101502.19;5065008;28;20040;-70
2023/12/27 09:49:46;;;;;;;342.77;194.90;;;;;;;6.65;100.00;101504.81;5056217;28;20048;-70
2023/12/27 09:52:14;;;;;;;87.28;46.90;;;;;;;6.67;100.00;101496.94;5048366;28;20056;-70
2023/12/27 09:54:41;;;;;;;22.85;18.88;;;;;;;6.66;100.00;101492.63;5051241;28;20068;-71
2023/12/27 09:57:09;;;;;;;33.30;29.70;;;;;;;6.66;100.00;101495.22;5045812;28;20091;-71
2023/12/27 09:59:41;;;;;;;61.22;47.55;;;;;;;6.68;100.00;101485.59;5047606;28;20053;-71
2023/12/27 10:02:17;;;;;;;73.28;48.22;;;;;;;6.68;100.00;101486.47;5047641;28;20045;-71
2023/12/27 10:04:57;;;;;;;92.35;56.80;;;;;;;6.71;100.00;101487.34;5035566;28;20051;-70
2023/12/27 10:07:27;;;;;;;89.90;56.38;;;;;;;6.71;100.00;101469.88;5051064;28;20075;-70
2023/12/27 10:09:55;;;;;;;113.75;74.93;;;;;;;6.72;100.00;101474.22;5068696;28;20090;-70
2023/12/27 10:12:31;;;;;;;43.03;29.55;;;;;;;6.74;100.00;101475.09;5028251;28;20095;-70
2023/12/27 10:14:58;;;;;;;48.85;35.03;;;;;;;6.75;100.00;101479.47;5042293;28;20063;-70
2023/12/27 10:17:27;;;;;;;205.45;138.63;;;;;;;6.77;100.00;101476.84;5055402;28;20052;-71
2023/12/27 10:19:54;;;;;;;94.15;64.90;;;;;;;6.78;100.00;101471.56;5036105;28;20063;-71
2023/12/27 10:22:21;;;;;;;71.88;53.13;;;;;;;6.83;100.00;101464.56;5068732;28;20036;-70
2023/12/27 10:24:49;;;;;;;76.88;57.40;;;;;;;6.86;100.00;101463.69;5056407;28;20547;-71
2023/12/27 10:27:16;;;;;;;30.33;23.48;;;;;;;6.90;100.00;101467.16;5060170;28;20056;-70
2023/12/27 10:29:47;;;;;;;29.20;25.15;;;;;;;6.91;100.00;101461.94;5033400;28;20151;-70
2023/12/27 10:32:19;;;;;;;20.00;16.90;;;;;;;6.97;100.00;101454.03;5067745;28;20067;-70
2023/12/27 10:34:46;;;;;;;13.55;9.48;;;;;;;7.01;100.00;101440.91;5033489;28;20132;-70
2023/12/27 10:37:16;;;;;;;20.02;14.55;;;;;;;7.03;100.00;101433.88;5047192;28;20037;-70
2023/12/27 10:39:44;;;;;;;24.60;18.13;;;;;;;7.07;100.00;101436.47;5047417;28;20041;-70
2023/12/27 10:42:16;;;;;;;18.20;11.73;;;;;;;7.11;100.00;101425.09;5043418;28;20049;-70
2023/12/27 10:44:48;;;;;;;15.70;9.32;;;;;;;7.17;100.00;101423.31;5031684;28;20036;-70
2023/12/27 10:47:19;;;;;;;16.27;12.50;;;;;;;7.21;100.00;101428.53;5061147;28;20072;-70
2023/12/27 10:49:48;;;;;;;13.52;10.70;;;;;;;7.25;100.00;101417.13;5028803;28;20517;-70
2023/12/27 10:52:17;;;;;;;12.98;8.30;;;;;;;7.30;100.00;101398.72;5033237;28;21222;-70
2023/12/27 10:54:49;;;;;;;13.20;7.30;;;;;;;7.36;100.00;101393.44;5039494;28;20416;-70
2023/12/27 10:57:22;;;;;;;12.65;7.57;;;;;;;7.45;100.00;101392.50;5011246;28;20041;-70
2023/12/27 10:59:51;;;;;;;11.00;6.95;;;;;;;7.51;100.00;101407.31;5027683;28;20130;-70
2023/12/27 11:02:20;;;;;;;8.65;6.05;;;;;;;7.57;100.00;101399.41;5046188;28;20158;-70
2023/12/27 11:04:50;;;;;;;9.25;5.18;;;;;;;7.62;100.00;101389.72;5056067;28;20032;-71
2023/12/27 11:07:18;;;;;;;10.70;5.80;;;;;;;7.68;100.00;101381.78;5053959;28;20497;-70
2023/12/27 11:09:48;;;;;;;8.77;5.63;;;;;;;7.71;100.00;101376.50;5035477;28;20512;-71
2023/12/27 11:12:19;;;;;;;8.27;5.32;;;;;;;7.74;100.00;101380.84;5042334;28;20052;-70
2023/12/27 11:14:48;;;;;;;6.68;4.97;;;;;;;7.77;100.00;101379.09;5067052;28;20040;-70